sensor_id;sensor_type;location;lat;lon;timestamp;pressure;altitude;pressure_sealevel;temperature;humidity
26657;BME280;14279;50.010;8.260;2023-01-28T00:02:21;101331.25;;;4.38;70.22
26657;BME280;14279;50.010;8.260;2023-01-28T00:04:47;101347.69;;;4.19;70.46
26657;BME280;14279;50.010;8.260;2023-01-28T00:07:12;101337.34;;;4.22;70.41
26657;BME280;14279;50.010;8.260;2023-01-28T00:09:38;101344.19;;;4.33;70.00
26657;BME280;14279;50.010;8.260;2023-01-28T00:12:04;101341.56;;;4.38;70.12
26657;BME280;14279;50.010;8.260;2023-01-28T00:14:29;101338.16;;;4.37;70.27
26657;BME280;14279;50.010;8.260;2023-01-28T00:16:54;101338.19;;;4.32;70.07
26657;BME280;14279;50.010;8.260;2023-01-28T00:19:20;101345.06;;;4.26;70.27
26657;BME280;14279;50.010;8.260;2023-01-28T00:21:45;101333.84;;;4.34;69.93
26657;BME280;14279;50.010;8.260;2023-01-28T00:24:10;101338.06;;;4.49;69.92
26657;BME280;14279;50.010;8.260;2023-01-28T00:26:35;101346.63;;;4.58;69.23
26657;BME280;14279;50.010;8.260;2023-01-28T00:29:01;101350.19;;;4.38;70.11
26657;BME280;14279;50.010;8.260;2023-01-28T00:31:27;101345.88;;;4.39;69.93
26657;BME280;14279;50.010;8.260;2023-01-28T00:33:53;101346.69;;;4.50;69.37
26657;BME280;14279;50.010;8.260;2023-01-28T00:36:20;101347.50;;;4.54;68.85
26657;BME280;14279;50.010;8.260;2023-01-28T00:38:50;101348.44;;;4.39;69.73
26657;BME280;14279;50.010;8.260;2023-01-28T00:41:17;101343.31;;;4.31;69.74
26657;BME280;14279;50.010;8.260;2023-01-28T00:43:43;101350.22;;;4.27;70.09
26657;BME280;14279;50.010;8.260;2023-01-28T00:46:10;101351.03;;;4.39;70.07
26657;BME280;14279;50.010;8.260;2023-01-28T00:48:37;101349.34;;;4.31;70.04
26657;BME280;14279;50.010;8.260;2023-01-28T00:51:04;101353.56;;;4.46;69.70
26657;BME280;14279;50.010;8.260;2023-01-28T00:53:30;101351.00;;;4.48;69.75
26657;BME280;14279;50.010;8.260;2023-01-28T00:55:55;101356.13;;;4.46;69.16
26657;BME280;14279;50.010;8.260;2023-01-28T00:58:20;101354.44;;;4.45;69.32
26657;BME280;14279;50.010;8.260;2023-01-28T01:00:48;101356.16;;;4.48;69.08
26657;BME280;14279;50.010;8.260;2023-01-28T01:03:13;101353.53;;;4.57;69.21
26657;BME280;14279;50.010;8.260;2023-01-28T01:05:38;101358.72;;;4.46;69.07
26657;BME280;14279;50.010;8.260;2023-01-28T01:08:04;101350.97;;;4.46;69.01
26657;BME280;14279;50.010;8.260;2023-01-28T01:10:29;101351.81;;;4.48;68.87
26657;BME280;14279;50.010;8.260;2023-01-28T01:12:54;101357.84;;;4.52;68.51
26657;BME280;14279;50.010;8.260;2023-01-28T01:15:22;101353.53;;;4.49;69.10
26657;BME280;14279;50.010;8.260;2023-01-28T01:17:48;101349.25;;;4.51;68.57
26657;BME280;14279;50.010;8.260;2023-01-28T01:20:22;101353.56;;;4.51;68.77
26657;BME280;14279;50.010;8.260;2023-01-28T01:22:47;101348.41;;;4.45;68.15
26657;BME280;14279;50.010;8.260;2023-01-28T01:25:15;101349.41;;;4.20;69.42
26657;BME280;14279;50.010;8.260;2023-01-28T01:27:41;101347.63;;;4.29;69.28
26657;BME280;14279;50.010;8.260;2023-01-28T01:30:07;101353.59;;;4.35;68.89
26657;BME280;14279;50.010;8.260;2023-01-28T01:32:33;101348.47;;;4.37;68.24
26657;BME280;14279;50.010;8.260;2023-01-28T01:34:59;101354.44;;;4.41;68.50
26657;BME280;14279;50.010;8.260;2023-01-28T01:37:25;101358.00;;;4.19;68.81
26657;BME280;14279;50.010;8.260;2023-01-28T01:39:50;101362.25;;;4.25;68.81
26657;BME280;14279;50.010;8.260;2023-01-28T01:42:15;101366.56;;;4.14;68.83
26657;BME280;14279;50.010;8.260;2023-01-28T01:44:54;101365.69;;;4.24;68.67
26657;BME280;14279;50.010;8.260;2023-01-28T01:47:28;101374.19;;;4.49;67.81
26657;BME280;14279;50.010;8.260;2023-01-28T01:49:57;101369.94;;;4.42;67.69
26657;BME280;14279;50.010;8.260;2023-01-28T01:52:27;101375.09;;;4.39;67.86
26657;BME280;14279;50.010;8.260;2023-01-28T01:54:59;101372.50;;;4.42;67.75
26657;BME280;14279;50.010;8.260;2023-01-28T01:57:30;101370.75;;;4.49;67.83
26657;BME280;14279;50.010;8.260;2023-01-28T01:59:56;101377.63;;;4.50;67.69
26657;BME280;14279;50.010;8.260;2023-01-28T02:02:35;101377.66;;;4.45;67.74
26657;BME280;14279;50.010;8.260;2023-01-28T02:05:02;101385.41;;;4.33;68.23
26657;BME280;14279;50.010;8.260;2023-01-28T02:07:27;101378.53;;;4.44;67.82
26657;BME280;14279;50.010;8.260;2023-01-28T02:10:02;101375.94;;;4.44;68.02
26657;BME280;14279;50.010;8.260;2023-01-28T02:12:35;101378.53;;;4.41;68.07
26657;BME280;14279;50.010;8.260;2023-01-28T02:17:29;101381.91;;;4.49;67.79
26657;BME280;14279;50.010;8.260;2023-01-28T02:19:58;101383.66;;;4.49;67.94
26657;BME280;14279;50.010;8.260;2023-01-28T02:25:14;101389.66;;;4.49;67.79
26657;BME280;14279;50.010;8.260;2023-01-28T02:28:11;101385.28;;;4.59;67.39
26657;BME280;14279;50.010;8.260;2023-01-28T02:30:41;101378.47;;;4.54;68.29
26657;BME280;14279;50.010;8.260;2023-01-28T02:33:19;101380.19;;;4.56;67.59
26657;BME280;14279;50.010;8.260;2023-01-28T02:35:54;101387.97;;;4.45;67.88
26657;BME280;14279;50.010;8.260;2023-01-28T02:40:52;101387.06;;;4.54;68.43
26657;BME280;14279;50.010;8.260;2023-01-28T02:43:44;101375.84;;;4.66;67.62
26657;BME280;14279;50.010;8.260;2023-01-28T02:46:33;101381.03;;;4.57;67.58
26657;BME280;14279;50.010;8.260;2023-01-28T02:49:28;101389.66;;;4.46;67.91
26657;BME280;14279;50.010;8.260;2023-01-28T02:52:08;101383.63;;;4.55;67.45
26657;BME280;14279;50.010;8.260;2023-01-28T02:55:01;101395.69;;;4.41;67.59
26657;BME280;14279;50.010;8.260;2023-01-28T02:57:46;101381.06;;;4.47;67.66
26657;BME280;14279;50.010;8.260;2023-01-28T03:03:53;101392.31;;;4.26;66.72
26657;BME280;14279;50.010;8.260;2023-01-28T03:06:01;101393.97;;;4.46;66.94
26657;BME280;14279;50.010;8.260;2023-01-28T03:08:36;101390.50;;;4.53;66.43
26657;BME280;14279;50.010;8.260;2023-01-28T03:11:22;101388.75;;;4.63;65.96
26657;BME280;14279;50.010;8.260;2023-01-28T03:14:07;101397.31;;;4.63;65.96
26657;BME280;14279;50.010;8.260;2023-01-28T03:16:52;101411.09;;;4.58;66.35
26657;BME280;14279;50.010;8.260;2023-01-28T03:19:37;101400.88;;;4.38;66.89
26657;BME280;14279;50.010;8.260;2023-01-28T03:22:23;101410.28;;;4.49;66.53
26657;BME280;14279;50.010;8.260;2023-01-28T03:25:07;101405.13;;;4.51;66.43
26657;BME280;14279;50.010;8.260;2023-01-28T03:28:03;101413.75;;;4.42;66.40
26657;BME280;14279;50.010;8.260;2023-01-28T03:31:18;101417.97;;;4.59;66.44
26657;BME280;14279;50.010;8.260;2023-01-28T03:34:05;101418.00;;;4.56;65.67
26657;BME280;14279;50.010;8.260;2023-01-28T03:36:50;101411.97;;;4.57;65.50
26657;BME280;14279;50.010;8.260;2023-01-28T03:39:25;101421.44;;;4.56;66.00
26657;BME280;14279;50.010;8.260;2023-01-28T03:42:01;101421.44;;;4.51;66.11
26657;BME280;14279;50.010;8.260;2023-01-28T03:44:27;101423.16;;;4.49;65.55
26657;BME280;14279;50.010;8.260;2023-01-28T03:47:11;101423.16;;;4.54;65.29
26657;BME280;14279;50.010;8.260;2023-01-28T03:49:41;101424.88;;;4.57;65.58
26657;BME280;14279;50.010;8.260;2023-01-28T03:52:06;101433.50;;;4.45;66.11
26657;BME280;14279;50.010;8.260;2023-01-28T03:54:32;101429.16;;;4.58;65.81
26657;BME280;14279;50.010;8.260;2023-01-28T03:56:57;101426.56;;;4.61;65.38
26657;BME280;14279;50.010;8.260;2023-01-28T03:59:22;101436.00;;;4.70;65.07
26657;BME280;14279;50.010;8.260;2023-01-28T04:01:48;101433.44;;;4.60;65.78
26657;BME280;14279;50.010;8.260;2023-01-28T04:04:15;101436.84;;;4.72;65.23
26657;BME280;14279;50.010;8.260;2023-01-28T04:06:49;101430.78;;;4.77;65.11
26657;BME280;14279;50.010;8.260;2023-01-28T04:09:14;101435.06;;;4.88;64.77
26657;BME280;14279;50.010;8.260;2023-01-28T04:11:39;101434.22;;;4.82;64.79
26657;BME280;14279;50.010;8.260;2023-01-28T04:14:05;101435.06;;;4.88;64.84
26657;BME280;14279;50.010;8.260;2023-01-28T04:16:30;101437.69;;;4.80;65.12
26657;BME280;14279;50.010;8.260;2023-01-28T04:18:55;101436.75;;;4.90;64.55
26657;BME280;14279;50.010;8.260;2023-01-28T04:21:22;101439.41;;;4.76;65.43
26657;BME280;14279;50.010;8.260;2023-01-28T04:23:47;101439.41;;;4.72;64.93
26657;BME280;14279;50.010;8.260;2023-01-28T04:26:12;101435.09;;;4.77;64.59
26657;BME280;14279;50.010;8.260;2023-01-28T04:28:37;101441.13;;;4.79;64.70
26657;BME280;14279;50.010;8.260;2023-01-28T04:31:03;101439.38;;;4.82;64.04
26657;BME280;14279;50.010;8.260;2023-01-28T04:33:28;101436.88;;;4.64;64.72
26657;BME280;14279;50.010;8.260;2023-01-28T04:35:53;101440.31;;;4.69;64.23
26657;BME280;14279;50.010;8.260;2023-01-28T04:38:18;101442.03;;;4.64;64.47
26657;BME280;14279;50.010;8.260;2023-01-28T04:40:44;101438.56;;;4.71;64.73
26657;BME280;14279;50.010;8.260;2023-01-28T04:43:09;101443.72;;;4.76;64.19
26657;BME280;14279;50.010;8.260;2023-01-28T04:45:34;101446.25;;;4.77;64.66
26657;BME280;14279;50.010;8.260;2023-01-28T04:47:59;101441.19;;;4.60;64.40
26657;BME280;14279;50.010;8.260;2023-01-28T04:50:25;101446.38;;;4.57;64.45
26657;BME280;14279;50.010;8.260;2023-01-28T04:52:50;101444.63;;;4.59;64.59
26657;BME280;14279;50.010;8.260;2023-01-28T04:55:15;101439.50;;;4.51;64.53
26657;BME280;14279;50.010;8.260;2023-01-28T04:57:40;101443.88;;;4.32;65.36
26657;BME280;14279;50.010;8.260;2023-01-28T05:00:07;101444.72;;;4.36;65.46
26657;BME280;14279;50.010;8.260;2023-01-28T05:02:33;101436.13;;;4.28;65.30
26657;BME280;14279;50.010;8.260;2023-01-28T05:04:58;101438.72;;;4.28;65.70
26657;BME280;14279;50.010;8.260;2023-01-28T05:07:25;101445.59;;;4.21;65.75
26657;BME280;14279;50.010;8.260;2023-01-28T05:09:50;101445.59;;;4.18;65.72
26657;BME280;14279;50.010;8.260;2023-01-28T05:12:16;101456.78;;;4.06;65.47
26657;BME280;14279;50.010;8.260;2023-01-28T05:14:41;101454.22;;;4.03;65.94
26657;BME280;14279;50.010;8.260;2023-01-28T05:17:06;101448.19;;;4.15;65.42
26657;BME280;14279;50.010;8.260;2023-01-28T05:19:31;101452.50;;;4.06;65.44
26657;BME280;14279;50.010;8.260;2023-01-28T05:21:57;101461.97;;;3.90;65.38
26657;BME280;14279;50.010;8.260;2023-01-28T05:24:22;101453.38;;;3.93;65.88
26657;BME280;14279;50.010;8.260;2023-01-28T05:26:47;101454.22;;;3.89;65.98
26657;BME280;14279;50.010;8.260;2023-01-28T05:29:12;101457.69;;;3.86;65.69
26657;BME280;14279;50.010;8.260;2023-01-28T05:31:38;101457.69;;;3.85;65.54
26657;BME280;14279;50.010;8.260;2023-01-28T05:34:03;101460.25;;;3.91;65.11
26657;BME280;14279;50.010;8.260;2023-01-28T05:36:28;101462.81;;;3.80;65.18
26657;BME280;14279;50.010;8.260;2023-01-28T05:38:53;101464.56;;;3.83;65.43
26657;BME280;14279;50.010;8.260;2023-01-28T05:41:19;101473.13;;;3.74;65.13
26657;BME280;14279;50.010;8.260;2023-01-28T05:43:44;101476.56;;;3.78;65.50
26657;BME280;14279;50.010;8.260;2023-01-28T05:46:09;101478.28;;;3.69;64.84
26657;BME280;14279;50.010;8.260;2023-01-28T05:48:34;101480.00;;;3.73;65.36
26657;BME280;14279;50.010;8.260;2023-01-28T05:51:00;101479.16;;;3.67;64.83
26657;BME280;14279;50.010;8.260;2023-01-28T05:53:25;101478.28;;;3.63;64.49
26657;BME280;14279;50.010;8.260;2023-01-28T05:55:52;101479.13;;;3.54;65.46
26657;BME280;14279;50.010;8.260;2023-01-28T05:58:18;101479.13;;;3.62;65.33
26657;BME280;14279;50.010;8.260;2023-01-28T06:00:44;101481.72;;;3.60;65.15
26657;BME280;14279;50.010;8.260;2023-01-28T06:03:09;101479.13;;;3.79;64.59
26657;BME280;14279;50.010;8.260;2023-01-28T06:05:34;101487.72;;;3.70;64.71
26657;BME280;14279;50.010;8.260;2023-01-28T06:07:59;101492.88;;;3.81;64.64
26657;BME280;14279;50.010;8.260;2023-01-28T06:10:25;101479.13;;;3.65;64.52
26657;BME280;14279;50.010;8.260;2023-01-28T06:12:50;101489.47;;;3.81;64.36
26657;BME280;14279;50.010;8.260;2023-01-28T06:15:15;101490.31;;;3.84;64.50
26657;BME280;14279;50.010;8.260;2023-01-28T06:17:40;101492.88;;;3.73;64.66
26657;BME280;14279;50.010;8.260;2023-01-28T06:20:06;101498.88;;;3.72;64.78
26657;BME280;14279;50.010;8.260;2023-01-28T06:22:33;101497.19;;;3.74;64.33
26657;BME280;14279;50.010;8.260;2023-01-28T06:24:58;101501.47;;;3.83;64.61
26657;BME280;14279;50.010;8.260;2023-01-28T06:27:23;101500.59;;;4.00;64.12
26657;BME280;14279;50.010;8.260;2023-01-28T06:29:48;101502.31;;;4.04;64.31
26657;BME280;14279;50.010;8.260;2023-01-28T06:32:14;101506.63;;;4.08;64.10
26657;BME280;14279;50.010;8.260;2023-01-28T06:34:39;101514.34;;;3.99;64.14
26657;BME280;14279;50.010;8.260;2023-01-28T06:37:05;101513.50;;;4.12;63.88
26657;BME280;14279;50.010;8.260;2023-01-28T06:39:30;101513.47;;;4.14;64.31
26657;BME280;14279;50.010;8.260;2023-01-28T06:41:59;101521.19;;;4.21;64.11
26657;BME280;14279;50.010;8.260;2023-01-28T06:44:24;101523.78;;;4.11;64.12
26657;BME280;14279;50.010;8.260;2023-01-28T06:46:49;101529.81;;;3.83;65.36
26657;BME280;14279;50.010;8.260;2023-01-28T06:49:15;101534.94;;;3.65;66.44
26657;BME280;14279;50.010;8.260;2023-01-28T06:51:40;101528.09;;;3.81;66.65
26657;BME280;14279;50.010;8.260;2023-01-28T06:54:05;101529.81;;;3.85;66.82
26657;BME280;14279;50.010;8.260;2023-01-28T06:56:31;101534.06;;;3.75;67.42
26657;BME280;14279;50.010;8.260;2023-01-28T06:58:56;101533.22;;;3.65;67.57
26657;BME280;14279;50.010;8.260;2023-01-28T07:01:21;101523.78;;;3.69;67.30
26657;BME280;14279;50.010;8.260;2023-01-28T07:03:47;101526.38;;;3.89;66.89
26657;BME280;14279;50.010;8.260;2023-01-28T07:06:12;101524.66;;;3.79;67.54
26657;BME280;14279;50.010;8.260;2023-01-28T07:08:37;101537.53;;;3.68;68.01
26657;BME280;14279;50.010;8.260;2023-01-28T07:11:03;101532.38;;;3.86;67.32
26657;BME280;14279;50.010;8.260;2023-01-28T07:13:29;101540.97;;;3.74;67.53
26657;BME280;14279;50.010;8.260;2023-01-28T07:15:55;101538.38;;;3.59;68.27
26657;BME280;14279;50.010;8.260;2023-01-28T07:18:20;101540.09;;;3.69;68.37
26657;BME280;14279;50.010;8.260;2023-01-28T07:20:45;101544.38;;;3.61;67.75
26657;BME280;14279;50.010;8.260;2023-01-28T07:23:10;101546.97;;;3.61;67.69
26657;BME280;14279;50.010;8.260;2023-01-28T07:25:36;101553.84;;;3.74;67.46
26657;BME280;14279;50.010;8.260;2023-01-28T07:28:01;101559.00;;;3.79;67.54
26657;BME280;14279;50.010;8.260;2023-01-28T07:30:27;101554.69;;;3.61;67.44
26657;BME280;14279;50.010;8.260;2023-01-28T07:32:54;101548.69;;;3.64;67.77
26657;BME280;14279;50.010;8.260;2023-01-28T07:35:19;101551.22;;;3.54;68.34
26657;BME280;14279;50.010;8.260;2023-01-28T07:37:58;101557.25;;;3.63;67.65
26657;BME280;14279;50.010;8.260;2023-01-28T07:40:25;101555.53;;;3.74;67.79
26657;BME280;14279;50.010;8.260;2023-01-28T07:42:50;101563.28;;;3.83;66.98
26657;BME280;14279;50.010;8.260;2023-01-28T07:45:16;101565.00;;;3.92;67.24
26657;BME280;14279;50.010;8.260;2023-01-28T07:47:42;101557.28;;;3.92;66.55
26657;BME280;14279;50.010;8.260;2023-01-28T07:50:09;101561.59;;;3.99;66.69
26657;BME280;14279;50.010;8.260;2023-01-28T07:52:36;101573.63;;;4.00;66.37
26657;BME280;14279;50.010;8.260;2023-01-28T07:55:03;101566.75;;;3.88;66.62
26657;BME280;14279;50.010;8.260;2023-01-28T07:57:28;101568.41;;;3.66;67.06
26657;BME280;14279;50.010;8.260;2023-01-28T07:59:54;101574.44;;;3.59;67.17
26657;BME280;14279;50.010;8.260;2023-01-28T08:02:19;101578.72;;;3.61;67.27
26657;BME280;14279;50.010;8.260;2023-01-28T08:04:45;101573.63;;;3.93;66.76
26657;BME280;14279;50.010;8.260;2023-01-28T08:07:10;101575.31;;;3.76;66.75
26657;BME280;14279;50.010;8.260;2023-01-28T08:09:36;101579.59;;;3.87;66.74
26657;BME280;14279;50.010;8.260;2023-01-28T08:12:01;101572.75;;;3.83;66.58
26657;BME280;14279;50.010;8.260;2023-01-28T08:14:27;101578.69;;;3.63;66.53
26657;BME280;14279;50.010;8.260;2023-01-28T08:16:52;101578.72;;;3.66;66.47
26657;BME280;14279;50.010;8.260;2023-01-28T08:19:18;101573.63;;;3.85;66.68
26657;BME280;14279;50.010;8.260;2023-01-28T08:21:46;101580.47;;;3.92;66.54
26657;BME280;14279;50.010;8.260;2023-01-28T08:24:11;101586.47;;;3.79;65.84
26657;BME280;14279;50.010;8.260;2023-01-28T08:26:36;101591.63;;;3.71;66.24
26657;BME280;14279;50.010;8.260;2023-01-28T08:29:02;101591.56;;;3.63;66.10
26657;BME280;14279;50.010;8.260;2023-01-28T08:31:27;101584.75;;;3.70;65.97
26657;BME280;14279;50.010;8.260;2023-01-28T08:33:53;101578.72;;;3.61;65.50
26657;BME280;14279;50.010;8.260;2023-01-28T08:36:18;101583.84;;;3.61;65.63
26657;BME280;14279;50.010;8.260;2023-01-28T08:38:44;101580.47;;;3.81;65.44
26657;BME280;14279;50.010;8.260;2023-01-28T08:41:09;101587.28;;;3.60;65.70
26657;BME280;14279;50.010;8.260;2023-01-28T08:43:34;101583.91;;;3.71;65.72
26657;BME280;14279;50.010;8.260;2023-01-28T08:46:00;101578.75;;;3.85;65.19
26657;BME280;14279;50.010;8.260;2023-01-28T08:48:25;101583.03;;;3.80;65.35
26657;BME280;14279;50.010;8.260;2023-01-28T08:50:50;101584.75;;;3.90;65.02
26657;BME280;14279;50.010;8.260;2023-01-28T08:53:18;101586.47;;;3.88;64.68
26657;BME280;14279;50.010;8.260;2023-01-28T08:55:45;101590.75;;;3.76;65.00
26657;BME280;14279;50.010;8.260;2023-01-28T08:58:13;101593.34;;;3.87;64.49
26657;BME280;14279;50.010;8.260;2023-01-28T09:00:39;101601.88;;;3.63;64.61
26657;BME280;14279;50.010;8.260;2023-01-28T09:03:05;101604.50;;;3.77;64.67
26657;BME280;14279;50.010;8.260;2023-01-28T09:05:31;101605.34;;;3.79;64.49
26657;BME280;14279;50.010;8.260;2023-01-28T09:08:02;101607.09;;;3.86;64.53
26657;BME280;14279;50.010;8.260;2023-01-28T09:10:28;101618.22;;;3.67;64.43
26657;BME280;14279;50.010;8.260;2023-01-28T09:12:53;101613.91;;;3.70;65.13
26657;BME280;14279;50.010;8.260;2023-01-28T09:15:19;101613.09;;;3.82;64.23
26657;BME280;14279;50.010;8.260;2023-01-28T09:17:44;101613.91;;;3.70;64.22
26657;BME280;14279;50.010;8.260;2023-01-28T09:20:10;101623.38;;;3.78;64.17
26657;BME280;14279;50.010;8.260;2023-01-28T09:22:36;101620.81;;;3.82;63.42
26657;BME280;14279;50.010;8.260;2023-01-28T09:25:01;101620.72;;;3.51;63.84
26657;BME280;14279;50.010;8.260;2023-01-28T09:27:33;101622.44;;;3.52;63.71
26657;BME280;14279;50.010;8.260;2023-01-28T09:29:58;101622.47;;;3.63;63.81
26657;BME280;14279;50.010;8.260;2023-01-28T09:32:23;101625.13;;;3.86;63.24
26657;BME280;14279;50.010;8.260;2023-01-28T09:34:49;101623.38;;;3.79;62.72
26657;BME280;14279;50.010;8.260;2023-01-28T09:37:14;101617.38;;;3.77;63.02
26657;BME280;14279;50.010;8.260;2023-01-28T09:39:42;101617.41;;;3.85;63.53
26657;BME280;14279;50.010;8.260;2023-01-28T09:42:29;101627.72;;;3.89;64.24
26657;BME280;14279;50.010;8.260;2023-01-28T09:48:05;101630.31;;;4.08;62.31
26657;BME280;14279;50.010;8.260;2023-01-28T09:50:36;101632.91;;;4.28;62.82
26657;BME280;14279;50.010;8.260;2023-01-28T09:53:31;101635.44;;;4.10;63.45
26657;BME280;14279;50.010;8.260;2023-01-28T09:56:12;101636.31;;;4.10;62.43
26657;BME280;14279;50.010;8.260;2023-01-28T09:58:47;101634.59;;;4.09;63.03
26657;BME280;14279;50.010;8.260;2023-01-28T10:01:40;101641.50;;;4.29;62.07
26657;BME280;14279;50.010;8.260;2023-01-28T10:10:21;101647.44;;;3.72;63.03
26657;BME280;14279;50.010;8.260;2023-01-28T10:19:06;101649.97;;;3.75;62.49
26657;BME280;14279;50.010;8.260;2023-01-28T10:25:04;101650.03;;;3.83;62.81
26657;BME280;14279;50.010;8.260;2023-01-28T10:27:40;101654.28;;;3.71;63.04
26657;BME280;14279;50.010;8.260;2023-01-28T10:30:24;101658.63;;;3.91;62.66
26657;BME280;14279;50.010;8.260;2023-01-28T10:36:18;101661.13;;;3.60;63.50
26657;BME280;14279;50.010;8.260;2023-01-28T10:38:43;101666.28;;;3.68;62.98
26657;BME280;14279;50.010;8.260;2023-01-28T10:41:10;101656.94;;;4.04;61.83
26657;BME280;14279;50.010;8.260;2023-01-28T10:43:39;101644.91;;;4.06;61.98
26657;BME280;14279;50.010;8.260;2023-01-28T10:46:18;101656.88;;;3.74;62.19
26657;BME280;14279;50.010;8.260;2023-01-28T10:48:52;101658.56;;;3.72;62.18
26657;BME280;14279;50.010;8.260;2023-01-28T10:54:33;101655.94;;;3.63;62.10
26657;BME280;14279;50.010;8.260;2023-01-28T10:57:00;101662.78;;;3.50;62.10
26657;BME280;14279;50.010;8.260;2023-01-28T11:02:36;101653.41;;;3.69;61.64
26657;BME280;14279;50.010;8.260;2023-01-28T11:05:28;101662.91;;;3.83;61.57
26657;BME280;14279;50.010;8.260;2023-01-28T11:11:44;101659.47;;;3.87;61.52
26657;BME280;14279;50.010;8.260;2023-01-28T11:14:33;101654.28;;;3.74;61.46
26657;BME280;14279;50.010;8.260;2023-01-28T11:16:59;101643.06;;;3.63;61.24
26657;BME280;14279;50.010;8.260;2023-01-28T11:19:30;101659.44;;;3.71;61.48
26657;BME280;14279;50.010;8.260;2023-01-28T11:21:58;101655.06;;;3.56;61.21
26657;BME280;14279;50.010;8.260;2023-01-28T11:24:32;101652.47;;;3.53;62.11
26657;BME280;14279;50.010;8.260;2023-01-28T11:30:15;101668.88;;;3.74;61.77
26657;BME280;14279;50.010;8.260;2023-01-28T11:35:36;101658.63;;;3.85;61.18
26657;BME280;14279;50.010;8.260;2023-01-28T11:38:02;101657.72;;;3.69;61.48
26657;BME280;14279;50.010;8.260;2023-01-28T11:40:51;101659.44;;;3.79;61.36
26657;BME280;14279;50.010;8.260;2023-01-28T11:43:19;101652.47;;;3.49;61.21
26657;BME280;14279;50.010;8.260;2023-01-28T11:46:20;101654.16;;;3.39;62.17
26657;BME280;14279;50.010;8.260;2023-01-28T11:52:12;101657.53;;;3.28;62.02
26657;BME280;14279;50.010;8.260;2023-01-28T11:55:03;101632.72;;;3.48;62.24
26657;BME280;14279;50.010;8.260;2023-01-28T12:24:18;101644.59;;;3.13;62.19
26657;BME280;14279;50.010;8.260;2023-01-28T12:29:35;101640.31;;;3.10;63.08
26657;BME280;14279;50.010;8.260;2023-01-28T12:32:18;101644.69;;;3.35;62.21
26657;BME280;14279;50.010;8.260;2023-01-28T12:41:06;101628.38;;;3.29;61.44
26657;BME280;14279;50.010;8.260;2023-01-28T12:46:26;101634.31;;;3.11;61.88
26657;BME280;14279;50.010;8.260;2023-01-28T12:49:12;101630.78;;;3.01;62.18
26657;BME280;14279;50.010;8.260;2023-01-28T12:52:16;101633.41;;;3.08;61.80
26657;BME280;14279;50.010;8.260;2023-01-28T12:55:54;101628.25;;;3.05;61.80
26657;BME280;14279;50.010;8.260;2023-01-28T12:58:39;101626.50;;;2.99;61.62
26657;BME280;14279;50.010;8.260;2023-01-28T13:04:23;101629.19;;;3.21;61.58
26657;BME280;14279;50.010;8.260;2023-01-28T13:07:32;101623.28;;;3.46;60.67
26657;BME280;14279;50.010;8.260;2023-01-28T13:09:53;101627.56;;;3.40;61.20
26657;BME280;14279;50.010;8.260;2023-01-28T13:12:23;101625.81;;;3.33;61.32
26657;BME280;14279;50.010;8.260;2023-01-28T13:14:49;101628.44;;;3.45;60.54
26657;BME280;14279;50.010;8.260;2023-01-28T13:17:57;101640.50;;;3.63;60.18
26657;BME280;14279;50.010;8.260;2023-01-28T13:20:56;101648.13;;;3.38;60.91
26657;BME280;14279;50.010;8.260;2023-01-28T13:23:40;101644.75;;;3.50;59.13
26657;BME280;14279;50.010;8.260;2023-01-28T13:26:28;101658.38;;;3.23;59.13
26657;BME280;14279;50.010;8.260;2023-01-28T13:31:43;101656.53;;;3.00;58.84
26657;BME280;14279;50.010;8.260;2023-01-28T13:34:42;101665.03;;;2.93;58.50
26657;BME280;14279;50.010;8.260;2023-01-28T13:37:31;101666.84;;;3.03;59.12
26657;BME280;14279;50.010;8.260;2023-01-28T13:40:06;101665.22;;;3.21;57.95
26657;BME280;14279;50.010;8.260;2023-01-28T13:42:33;101664.41;;;3.29;57.91
26657;BME280;14279;50.010;8.260;2023-01-28T13:47:43;101670.47;;;3.41;56.66
26657;BME280;14279;50.010;8.260;2023-01-28T13:50:15;101663.72;;;3.74;56.55
26657;BME280;14279;50.010;8.260;2023-01-28T13:52:48;101672.25;;;3.56;56.21
26657;BME280;14279;50.010;8.260;2023-01-28T13:55:34;101662.84;;;3.63;56.03
26657;BME280;14279;50.010;8.260;2023-01-28T13:58:10;101663.72;;;3.69;56.30
26657;BME280;14279;50.010;8.260;2023-01-28T14:00:47;101665.38;;;3.53;56.82
26657;BME280;14279;50.010;8.260;2023-01-28T14:03:46;101675.69;;;3.58;56.50
26657;BME280;14279;50.010;8.260;2023-01-28T14:09:55;101677.34;;;3.46;56.46
26657;BME280;14279;50.010;8.260;2023-01-28T14:16:41;101668.84;;;3.66;56.08
26657;BME280;14279;50.010;8.260;2023-01-28T14:19:25;101673.09;;;3.53;56.37
26657;BME280;14279;50.010;8.260;2023-01-28T14:21:52;101671.34;;;3.44;56.27
26657;BME280;14279;50.010;8.260;2023-01-28T14:24:18;101673.88;;;3.38;56.78
26657;BME280;14279;50.010;8.260;2023-01-28T14:32:29;101673.22;;;3.89;55.64
26657;BME280;14279;50.010;8.260;2023-01-28T14:35:28;101679.28;;;4.14;54.95
26657;BME280;14279;50.010;8.260;2023-01-28T14:37:58;101677.53;;;4.01;55.00
26657;BME280;14279;50.010;8.260;2023-01-28T14:40:37;101680.13;;;3.95;55.29
26657;BME280;14279;50.010;8.260;2023-01-28T14:43:10;101680.09;;;3.88;55.70
26657;BME280;14279;50.010;8.260;2023-01-28T14:48:23;101676.56;;;3.61;54.69
26657;BME280;14279;50.010;8.260;2023-01-28T14:51:05;101672.31;;;3.71;54.86
26657;BME280;14279;50.010;8.260;2023-01-28T14:58:48;101660.16;;;3.38;54.58
26657;BME280;14279;50.010;8.260;2023-01-28T15:01:24;101661.94;;;3.48;54.15
26657;BME280;14279;50.010;8.260;2023-01-28T15:03:50;101659.38;;;3.53;53.83
26657;BME280;14279;50.010;8.260;2023-01-28T15:06:20;101672.22;;;3.54;54.25
26657;BME280;14279;50.010;8.260;2023-01-28T15:08:48;101669.50;;;3.20;53.76
26657;BME280;14279;50.010;8.260;2023-01-28T15:11:16;101680.72;;;3.35;54.54
26657;BME280;14279;50.010;8.260;2023-01-28T15:13:45;101675.72;;;3.70;54.31
26657;BME280;14279;50.010;8.260;2023-01-28T15:16:17;101682.56;;;3.59;54.10
26657;BME280;14279;50.010;8.260;2023-01-28T15:18:43;101677.34;;;3.46;54.17
26657;BME280;14279;50.010;8.260;2023-01-28T15:21:10;101676.53;;;3.55;54.30